x

Boston 16 Nm East Of Boston, Ma (44013) Wave Buoy

6:50pm - Sat 25th Apr 2015 All times are EDT. -4 hours from GMT.

  • Sig Wave height 1.0ft
  • Swell Direction
  • Peak Period 10s
  • Average Period 4s
  • Wind
    7mph, 9mph gusts
  • Sea Temp 44°f
  • Air Temp 44°f
  • Sea Pressure 1005.7mb
  • Boston 16 Nm East Of Boston, Ma
  • Boston 16 Nm East Of Boston, Ma

More Historic Weather Station data

Upgrade to MSW Pro to gain access to the past 30 days of data for over 8000 Wavebouys and Weather Stations around the globe.

Join Pro

Comparision Forecast

View Surf forecast
   
Sat 04/25 6:50pm 1ft 10s 4s 7 9 mph 1005.7mb 44f 44f
5:50pm 1.3ft 11s 4s 7 9 mph 1005.5mb 44f 44f
4:50pm 1ft 11s 4s 13
mph
1005.1mb 44f 43f
3:50pm 1ft 8s 4s 9 11 mph 1005.3mb 44f 43f
2:50pm 1.3ft 11s 4s 11 13 mph 1005.4mb 44f 43f
1:50pm 1.3ft 10s 4s 7 11 mph 1006mb 44f 45f
12:50pm 1.3ft 9s 4s 4 7 mph 1006.4mb 43f 44f
11:50am 1.3ft 10s 4s 7 9 mph 1006.9mb 43f 43f
10:50am 1.6ft 3s 3s 13 18 mph 1007.3mb 43f 42f
9:50am 1.6ft 3s 3s 13 16 mph 1007.5mb 42f 40f
8:50am 1.6ft 3s 3s 13 18 mph 1008.2mb 42f 39f
7:50am 2ft 3s 3s 13 18 mph 1008.3mb 42f 38f
6:50am 2.5ft 3s 3s 18 20 mph 1008.1mb 42f 38f
5:50am 2.5ft 3s 3s 18 22 mph 1007.4mb 42f 38f
4:50am 2.5ft 4s 3s 18 22 mph 1007.1mb 43f 39f
3:50am 2.5ft 3s 3s 18 22 mph 1007.2mb 43f 39f
2:50am 2.5ft 4s 3s 13 18 mph 1007.4mb 43f 40f
1:50am 3ft 4s 4s 22 29 mph 1007.4mb 42f 40f
12:50am 3ft 3s 3s 22 27 mph 1007.9mb 42f 41f
Fri 04/24 11:50pm 3ft 3s 4s 22 27 mph 1008.2mb 42f 41f
10:50pm 2.5ft 4s 4s 20 25 mph 1008.3mb 43f 42f
9:50pm 2.5ft 3s 4s 22 27 mph 1008mb 43f 43f
8:50pm 2.5ft 4s 3s 16 18 mph 1008mb 43f 44f
7:50pm 2.5ft 4s 4s 20 22 mph 1007.2mb 43f 44f
6:50pm 2.5ft 3s 4s 16 20 mph 1006.4mb 43f 44f
5:50pm 2.5ft 11s 4s 16 18 mph 1005.8mb 43f 45f
4:50pm 2ft 3s 4s 16 18 mph 1005.5mb 43f 45f
3:50pm 2.5ft 3s 4s 13 16 mph 1005.2mb 43f 44f
2:50pm 2.5ft 3s 4s 16 18 mph 1005.2mb 43f 44f
1:50pm 2.5ft 3s 4s 16 20 mph 1005.5mb 43f 44f
12:50pm 3ft 3s 4s 18 20 mph 1005.6mb 43f 43f
11:50am 3ft 4s 4s 16 20 mph 1006mb 43f 42f
10:50am 3ft 4s 4s 20 25 mph 1006.1mb 43f 42f
9:50am 3ft 4s 4s 22 27 mph 1005.8mb 43f 42f
8:50am 2.5ft 4s 3s 22 27 mph 1005.6mb 42f 41f
7:50am 2.5ft 4s 4s 22 25 mph 1005.8mb 42f 40f
6:50am 3ft 4s 4s 25 29 mph 1005.3mb 42f 39f
5:50am 3.5ft 4s 4s 22 27 mph 1004.9mb 43f 38f
4:50am 3.5ft 4s 4s 22 27 mph 1004.8mb 43f 38f
3:50am 3ft 4s 4s 22 29 mph 1004.6mb 43f 38f
2:50am 3.5ft 4s 4s 22 27 mph 1004.6mb 43f 38f
1:50am 3.5ft 4s 4s 20 25 mph 1004.7mb 43f 39f
12:50am 3ft 9s 4s 22 27 mph 1004.9mb 43f 40f
Thu 04/23 11:50pm 3ft 11s 4s 22 27 mph 1004.9mb 43f 40f
10:50pm 3.5ft 9s 4s 22 27 mph 1004.9mb 43f 41f
9:50pm 3.5ft 9s 4s 22 27 mph 1004.7mb 43f 42f
8:50pm 3.5ft 9s 4s 22 27 mph 1004.2mb 43f 43f
7:50pm 3.5ft 10s 4s 20 25 mph 1003.6mb 43f 44f
6:50pm 3.5ft 10s 4s 16 22 mph 1003.1mb 43f 45f
5:50pm 3.5ft 9s 4s 16 20 mph 1002.6mb 43f 45f
4:50pm 3.5ft 10s 5s 16 22 mph 1002.2mb 43f 46f
3:50pm 3.5ft 11s 5s 13 18 mph 1001.9mb 43f 45f
2:50pm 3.5ft 10s 5s 13 18 mph 1001.9mb 43f 45f
1:50pm 3.5ft 10s 6s 18 22 mph 1002mb 43f 45f
12:50pm 3.5ft 9s 6s 13 18 mph 1002.2mb 43f 45f
11:50am 3.5ft 8s 6s 16 18 mph 1002.5mb 43f 44f
10:50am 3.5ft 9s 5s 13 18 mph 1002.8mb 43f 44f
9:50am 3.5ft 10s 5s 13 18 mph 1002.9mb 43f 44f
8:50am 3.5ft 10s 5s 18 22 mph 1002.7mb 42f 43f
7:50am 3.5ft 11s 6s 20 25 mph 1002.8mb 42f 42f
6:50am 3.5ft 10s 6s 16 20 mph 1002.7mb 42f 42f
5:50am 3.5ft 9s 6s 16 18 mph 1001.8mb 42f 42f
4:50am 3.5ft 10s 5s 16 20 mph 1001.6mb 42f 43f
3:50am 4.5ft 11s 5s 13 16 mph 1001.5mb 42f 43f
2:50am 4.5ft 11s 5s 16 20 mph 1001mb 42f 44f
1:50am 4.5ft 12s 5s 20 25 mph 999.8mb 42f 46f
12:50am 4.5ft 10s 6s 16 18 mph 1000.3mb 42f 47f
Wed 04/22 11:50pm 4.5ft 9s 6s 13
mph
1000.4mb 42f 47f
10:50pm 4.5ft 10s 5s 16 18 mph 1001.4mb 42f 46f
9:50pm 5ft 11s 5s 20 25 mph 1002.1mb 43f 49f
8:50pm 5ft 9s 6s 29 43 mph 1002.5mb 43f 54f
7:50pm 5ft 11s 6s 16 20 mph 1002.7mb 43f 52f
6:50pm 5ft 10s 6s 18 20 mph 1002.8mb 43f 49f
5:50pm 5ft 10s 6s 18 20 mph 1003mb 43f 50f
4:50pm 5.5ft 10s 6s 22 27 mph 1002.9mb 43f 50f
3:50pm 5ft 11s 6s 18 22 mph 1003.3mb 44f 50f
2:50pm 5ft 11s 5s 20 25 mph 1004.1mb 44f 52f
1:50pm 5ft 11s 6s 16 20 mph 1004.9mb 43f 56f
12:50pm 4.5ft 11s 6s 18 20 mph 1005.8mb 43f 49f
11:50am 5ft 11s 7s 13 16 mph 1007mb 43f 47f
10:50am 5ft 11s 7s 13 16 mph 1007.9mb 43f 46f
9:50am 5ft 11s 7s 11 13 mph 1008.7mb 43f 46f
8:50am 5ft 11s 8s 11 13 mph 1009.2mb 42f 45f
7:50am 4.5ft 10s 8s 9 11 mph 1009.3mb 43f 45f
6:50am 5ft 11s 8s 7 9 mph 1009.3mb 42f 45f
5:50am 5.5ft 11s 8s 7
mph
1008.9mb 42f 44f
4:50am 6.5ft 11s 8s 7
mph
1008.3mb 42f 46f
3:50am 5ft 10s 7s 4 7 mph 1008.4mb 42f 45f
2:50am 6ft 11s 7s 7 9 mph 1008.2mb 42f 44f
1:50am 6ft 11s 7s 2 4 mph 1007.7mb 42f 45f
12:50am 5.5ft 11s 7s 4 7 mph 1007.7mb 42f 46f